West Point, NE

3:17 AM CDT on August 28, 2014 (GMT -0500)
Southwest Hill | Change Station
CLOSE
Current Station
Personal Weather Station
Location: Hooper, NE
Elevation: 1320 ft
Nearby Weather Stations
Active Advisory: Flash Flood Watch

Elev 1320 ft 41.61 °N, 96.55 °W | Updated 8 seconds ago

Rain
Rain
69.3 °F
Feels Like 69.3 °F
N
0.0
Wind Variable Wind from SE
Gusts 0.0 mph

Today
High -- | Low -- °F
--% Chance of Precip.
Yesterday
High -- | Low -- °F
Precip. -- in
6:48 AM 8:06 PM
Waxing Crescent, 7% visible
Pressure 29.96 in
Visibility 9.0 miles
Clouds Few 3600 ft
Few 4400 ft
Dew Point 68 °F
Humidity 97%
Rainfall 0.07 in
Snow Depth Not available.
UV 0.0 out of 12
Pollen .70 out of 12
Air Quality Not available.
Flu Activity Not available.
METAR KTQE 280754Z AUTO 11005KT 9SM -RA FEW036 FEW044 21/20 A2999 RMK AO2 RAB54 SLP146 P0000 T02110200

More Conditions Fewer Conditions

Pressure 29.96 in
Visibility 9.0 miles
Clouds Few 3600 ft
Few 4400 ft
Dew Point 68 °F
Humidity 97%
Rainfall 0.07 in
Snow Depth Not available.
UV 0.0 out of 12
Pollen .70 out of 12
Air Quality Not available.
Flu Activity Not available.
METAR KTQE 280754Z AUTO 11005KT 9SM -RA FEW036 FEW044 21/20 A2999 RMK AO2 RAB54 SLP146 P0000 T02110200

More Conditions Fewer Conditions

10-Day Weather Forecast

Almanac

Astronomy

Aug. 28, 2014 Rise Set
Actual Time 6:48 AM CDT 8:06 PM CDT
Civil Twilight 6:19 AM CDT 8:35 PM CDT
Nautical Twilight 5:44 AM CDT 9:10 PM CDT
Astronomical Twilight 5:08 AM CDT 9:46 PM CDT
Moon 9:45 AM CDT 9:27 PM CDT
Length of Visible Light 14h 16m
Length of Day
13h 18m
Tomorrow will be 2m 40s shorter.
Waxing Crescent, 7% of the Moon is Illuminated
Today
Waxing Crescent
Sep 2
First Quarter
Sep 8
Full
Sep 15
Last Quarter
Sep 24
New

Today's Extremes

State Highs State Lows

Community

WunderPhotos

Upload Photos

1,747,918 photos uploaded!

Nearby

Snow Depth

Station Depth Elevation
No new snow has been reported.

Earthquake Activity

City Distance Mag. Time & Date
No recent earthquake activity has been reported nearby.
Minimum magnitude displayed is 2.5.

Coastal Water Temperatures

Place Temperature
No Stations Reporting

Nearby Weather Stations